Time;durP1;ratioP1;P1;durP2;ratioP2;P2;SDS_P1;SDS_P2;PMS_P1;PMS_P2;Temp;Humidity;BMP_temperature;BMP_pressure;BME280_temperature;BME280_humidity;BME280_pressure;Samples;Min_cycle;Max_cycle;Signal;HPM_P1;HPM_P2
2021/09/28 00:01:28;;;;;;;13.25;4.80;;;26.20;99.90;;;;;;4167879;28;20475;-68
2021/09/28 00:03:33;;;;;;;14.30;5.15;;;26.10;99.90;;;;;;4145528;28;20041;-68
2021/09/28 00:05:38;;;;;;;15.35;5.97;;;26.10;99.90;;;;;;4150804;28;20064;-68
2021/09/28 00:07:42;;;;;;;17.55;5.93;;;26.10;99.90;;;;;;4157643;28;20107;-68
2021/09/28 00:09:50;;;;;;;16.15;5.68;;;26.10;99.90;;;;;;4158742;28;20057;-68
2021/09/28 00:11:55;;;;;;;13.15;5.70;;;26.10;99.90;;;;;;4151588;28;20045;-68
2021/09/28 00:14:00;;;;;;;13.82;4.78;;;26.20;99.90;;;;;;4153436;28;20473;-67
2021/09/28 00:16:05;;;;;;;13.30;5.32;;;26.20;99.90;;;;;;4159113;28;20508;-68
2021/09/28 00:18:10;;;;;;;12.48;5.45;;;26.20;99.90;;;;;;4170945;28;20049;-68
2021/09/28 00:20:15;;;;;;;14.27;5.20;;;26.20;99.90;;;;;;4158960;28;20043;-68
2021/09/28 00:22:26;;;;;;;13.13;5.30;;;26.30;99.90;;;;;;4147528;28;20077;-68
2021/09/28 00:24:30;;;;;;;12.30;4.32;;;26.30;99.90;;;;;;4151561;28;20447;-68
2021/09/28 00:26:35;;;;;;;14.30;5.20;;;26.30;99.90;;;;;;4153394;28;20048;-68
2021/09/28 00:28:39;;;;;;;10.63;4.32;;;26.30;99.90;;;;;;4165933;28;20507;-69
2021/09/28 00:30:44;;;;;;;8.23;3.70;;;26.20;99.90;;;;;;4166750;28;20084;-70
2021/09/28 00:32:49;;;;;;;8.80;4.30;;;26.30;99.90;;;;;;4144270;28;20049;-68
2021/09/28 00:34:54;;;;;;;9.68;4.00;;;26.40;99.90;;;;;;4154449;28;20156;-68
2021/09/28 00:37:00;;;;;;;11.05;4.30;;;26.50;99.90;;;;;;4150587;28;20081;-68
2021/09/28 00:39:05;;;;;;;11.98;5.00;;;26.50;99.90;;;;;;4150750;28;20053;-70
2021/09/28 00:41:09;;;;;;;7.15;4.10;;;26.40;99.90;;;;;;4157832;28;20041;-69
2021/09/28 00:43:14;;;;;;;8.15;3.90;;;26.50;99.90;;;;;;4145040;28;20041;-70
2021/09/28 00:45:18;;;;;;;10.65;4.00;;;26.60;99.90;;;;;;4150097;28;20945;-68
2021/09/28 00:47:23;;;;;;;6.57;3.67;;;26.60;99.90;;;;;;4156369;28;20526;-68
2021/09/28 00:49:27;;;;;;;6.80;3.75;;;26.60;99.90;;;;;;4150628;28;20099;-67
2021/09/28 00:51:32;;;;;;;9.48;5.00;;;26.70;99.90;;;;;;4174434;28;20096;-68
2021/09/28 00:53:38;;;;;;;8.35;4.18;;;26.80;99.90;;;;;;4137739;28;20069;-69
2021/09/28 00:55:42;;;;;;;5.78;3.53;;;26.70;99.90;;;;;;4134344;28;20117;-67
2021/09/28 00:57:47;;;;;;;5.20;3.35;;;26.80;99.90;;;;;;4123405;28;20512;-68
2021/09/28 00:59:52;;;;;;;5.32;3.53;;;27.00;99.90;;;;;;4110295;28;20059;-68
2021/09/28 01:01:58;;;;;;;5.15;3.28;;;27.10;99.90;;;;;;4126442;28;20130;-68
2021/09/28 01:04:08;;;;;;;6.65;4.22;;;27.10;99.90;;;;;;4134967;28;20556;-68
2021/09/28 01:06:15;;;;;;;7.85;3.38;;;27.00;99.90;;;;;;4141846;28;20041;-69
2021/09/28 01:08:20;;;;;;;4.40;2.60;;;26.90;99.90;;;;;;4141926;28;20212;-68
2021/09/28 01:10:25;;;;;;;7.38;3.40;;;27.00;99.90;;;;;;4126581;28;20054;-69
2021/09/28 01:12:30;;;;;;;5.63;3.13;;;27.00;99.90;;;;;;4134355;28;20101;-69
2021/09/28 01:14:35;;;;;;;3.35;2.33;;;27.10;99.90;;;;;;4129934;28;20473;-68
2021/09/28 01:16:40;;;;;;;7.68;2.53;;;27.10;99.90;;;;;;4142020;28;20535;-69
2021/09/28 01:18:53;;;;;;;;;;;27.20;99.90;;;;;;4130151;28;20073;-68
2021/09/28 01:21:01;;;;;;;4.47;2.78;;;27.30;99.90;;;;;;4124470;28;19933;-68
2021/09/28 01:23:06;;;;;;;4.07;2.70;;;27.30;99.90;;;;;;4129442;28;20452;-68
2021/09/28 01:25:11;;;;;;;3.35;2.88;;;27.10;99.90;;;;;;4133232;28;20397;-67
2021/09/28 01:27:17;;;;;;;5.22;3.58;;;27.20;99.90;;;;;;4152799;28;20049;-68
2021/09/28 01:29:21;;;;;;;5.55;2.70;;;27.20;99.90;;;;;;4160681;28;20503;-67
2021/09/28 01:31:26;;;;;;;4.88;2.65;;;27.30;99.90;;;;;;4159114;28;20045;-68
2021/09/28 01:33:30;;;;;;;6.22;3.30;;;27.40;99.90;;;;;;4149278;28;20047;-68
2021/09/28 01:35:38;;;;;;;4.82;2.67;;;27.50;99.90;;;;;;4175006;28;20148;-68
2021/09/28 01:37:43;;;;;;;6.32;2.72;;;27.50;99.90;;;;;;4160750;28;20519;-67
2021/09/28 01:39:48;;;;;;;7.68;3.70;;;27.50;99.90;;;;;;4161086;28;20041;-68
2021/09/28 01:41:54;;;;;;;9.10;3.00;;;27.60;99.90;;;;;;4160542;28;20041;-68
2021/09/28 01:44:11;;;;;;;6.13;3.05;;;27.70;99.90;;;;;;4143822;28;20068;-68
2021/09/28 01:46:16;;;;;;;4.13;3.03;;;27.80;99.90;;;;;;4144700;28;20053;-68
2021/09/28 01:48:21;;;;;;;5.85;3.30;;;27.80;99.90;;;;;;4154976;28;20065;-68
2021/09/28 01:50:26;;;;;;;5.10;3.10;;;27.80;99.90;;;;;;4174829;28;20044;-69
2021/09/28 01:52:34;;;;;;;6.03;2.58;;;27.70;99.90;;;;;;4155924;28;20032;-69
2021/09/28 01:54:39;;;;;;;4.90;3.13;;;27.70;99.90;;;;;;4168784;28;20059;-69
2021/09/28 01:56:44;;;;;;;5.43;2.83;;;27.80;99.90;;;;;;4139860;28;20140;-70
2021/09/28 01:58:49;;;;;;;4.28;3.10;;;27.80;99.90;;;;;;4160011;28;20068;-70
2021/09/28 02:00:56;;;;;;;5.90;2.90;;;27.80;99.90;;;;;;4160280;28;20061;-69
2021/09/28 02:03:05;;;;;;;5.93;3.33;;;27.80;99.90;;;;;;4150501;28;20137;-68
2021/09/28 02:05:12;;;;;;;7.05;3.20;;;27.90;99.90;;;;;;4152411;28;20065;-69
2021/09/28 02:07:16;;;;;;;6.60;3.60;;;28.00;99.90;;;;;;4158600;28;20850;-70
2021/09/28 02:09:21;;;;;;;8.80;3.58;;;28.10;99.90;;;;;;4159522;28;20045;-70
2021/09/28 02:11:26;;;;;;;6.95;3.85;;;28.20;99.90;;;;;;4159764;28;20057;-70
2021/09/28 02:13:33;;;;;;;6.22;3.35;;;28.20;99.90;;;;;;4149270;28;20125;-69
2021/09/28 02:15:39;;;;;;;4.13;3.03;;;28.30;99.90;;;;;;4173302;28;21093;-69
2021/09/28 02:17:44;;;;;;;5.07;3.00;;;28.30;99.90;;;;;;4124992;28;20058;-70
2021/09/28 02:19:49;;;;;;;6.28;3.30;;;28.30;99.90;;;;;;4125310;28;20054;-70
2021/09/28 02:21:54;;;;;;;5.88;3.00;;;28.40;99.90;;;;;;4124291;28;20059;-69
2021/09/28 02:23:58;;;;;;;5.00;3.20;;;28.50;99.90;;;;;;4114731;28;20073;-69
2021/09/28 02:26:03;;;;;;;5.72;3.30;;;28.50;99.90;;;;;;4121741;28;20039;-69
2021/09/28 02:28:08;;;;;;;6.15;2.88;;;28.60;99.90;;;;;;4123459;28;20050;-69
2021/09/28 02:30:13;;;;;;;4.80;3.20;;;28.50;99.90;;;;;;4126040;28;20051;-69
2021/09/28 02:32:18;;;;;;;5.60;3.33;;;28.60;99.90;;;;;;4121012;28;20081;-69
2021/09/28 02:34:23;;;;;;;7.18;3.28;;;28.70;99.90;;;;;;4118258;28;20531;-68
2021/09/28 02:36:28;;;;;;;5.85;3.10;;;28.80;99.90;;;;;;4121483;28;20681;-69
2021/09/28 02:38:32;;;;;;;3.67;3.20;;;28.80;99.90;;;;;;4109359;28;20101;-70
2021/09/28 02:40:37;;;;;;;4.85;3.20;;;28.90;99.90;;;;;;4124799;28;20579;-70
2021/09/28 02:42:43;;;;;;;3.95;3.20;;;29.00;99.90;;;;;;4104166;28;20794;-69
2021/09/28 02:44:48;;;;;;;5.60;3.10;;;29.10;99.90;;;;;;4085051;28;20119;-70
2021/09/28 02:46:52;;;;;;;4.95;3.47;;;29.10;99.90;;;;;;4108249;28;20470;-70
2021/09/28 02:48:58;;;;;;;4.70;3.30;;;29.10;99.90;;;;;;4142535;28;20128;-69
2021/09/28 02:51:02;;;;;;;5.20;3.20;;;29.10;99.90;;;;;;4156767;28;20048;-70
2021/09/28 02:53:07;;;;;;;4.68;3.47;;;29.10;99.90;;;;;;4164962;28;20487;-70
2021/09/28 02:55:11;;;;;;;7.18;3.58;;;29.20;99.90;;;;;;4154218;28;20050;-70
2021/09/28 02:57:16;;;;;;;8.30;3.63;;;29.30;99.90;;;;;;4158375;28;20528;-69
2021/09/28 02:59:20;;;;;;;6.88;3.50;;;29.40;99.90;;;;;;4160873;28;20058;-70
2021/09/28 03:01:25;;;;;;;5.43;3.33;;;29.40;99.90;;;;;;4175298;28;20033;-70
2021/09/28 03:03:30;;;;;;;4.38;3.33;;;29.30;99.90;;;;;;4148150;28;20037;-69
2021/09/28 03:05:34;;;;;;;7.63;3.17;;;29.30;99.90;;;;;;4157724;28;20056;-69
2021/09/28 03:07:39;;;;;;;4.35;3.25;;;29.30;99.90;;;;;;4158326;28;20041;-69
2021/09/28 03:09:43;;;;;;;7.43;3.45;;;29.30;99.90;;;;;;4159495;28;20077;-69
2021/09/28 03:11:48;;;;;;;4.22;3.00;;;29.10;99.90;;;;;;4156531;28;20045;-69
2021/09/28 03:13:53;;;;;;;4.80;3.40;;;29.00;99.90;;;;;;4143583;28;20045;-69
2021/09/28 03:15:58;;;;;;;5.85;3.78;;;29.00;99.90;;;;;;4156405;28;20053;-69
2021/09/28 03:18:02;;;;;;;4.47;3.33;;;29.00;99.90;;;;;;4174005;28;20353;-70
2021/09/28 03:20:08;;;;;;;4.57;3.63;;;29.10;99.90;;;;;;4158543;28;20064;-70
2021/09/28 03:22:12;;;;;;;9.75;3.38;;;29.30;99.90;;;;;;4150285;28;20511;-70
2021/09/28 03:24:17;;;;;;;5.50;3.30;;;29.40;99.90;;;;;;4150302;28;20080;-71
2021/09/28 03:26:22;;;;;;;7.22;3.97;;;29.40;99.90;;;;;;4157443;28;20052;-70
2021/09/28 03:28:27;;;;;;;8.10;3.80;;;29.50;99.90;;;;;;4142024;28;20042;-71
2021/09/28 03:30:33;;;;;;;5.80;3.30;;;29.70;99.90;;;;;;4157026;28;20053;-70
2021/09/28 03:32:38;;;;;;;5.47;3.42;;;29.80;99.90;;;;;;4169250;28;20151;-69
2021/09/28 03:34:42;;;;;;;5.07;3.53;;;29.90;99.90;;;;;;4150209;28;20038;-70
2021/09/28 03:36:47;;;;;;;4.75;3.28;;;29.70;99.90;;;;;;4156159;28;20523;-71
2021/09/28 03:38:52;;;;;;;8.00;3.58;;;29.60;99.90;;;;;;4173249;28;20083;-70
2021/09/28 03:40:56;;;;;;;5.55;3.25;;;29.60;99.90;;;;;;4156414;28;20103;-69
2021/09/28 03:43:01;;;;;;;6.20;3.83;;;29.40;99.90;;;;;;4150055;28;20048;-68
2021/09/28 03:45:06;;;;;;;5.22;3.40;;;29.30;99.90;;;;;;4155977;28;20069;-68
2021/09/28 03:47:10;;;;;;;5.00;3.70;;;29.20;99.90;;;;;;4154084;28;20056;-72
2021/09/28 03:49:15;;;;;;;5.18;3.60;;;29.30;99.90;;;;;;4157722;28;20132;-70
2021/09/28 03:51:19;;;;;;;4.40;3.38;;;29.30;99.90;;;;;;4157808;28;20823;-68
2021/09/28 03:53:26;;;;;;;7.15;3.38;;;29.30;99.90;;;;;;4148617;28;20088;-68
2021/09/28 03:55:31;;;;;;;3.72;2.88;;;29.30;99.90;;;;;;4152431;28;20483;-69
2021/09/28 03:57:36;;;;;;;6.18;3.22;;;29.30;99.90;;;;;;4173362;28;20083;-71
2021/09/28 03:59:43;;;;;;;5.47;3.45;;;29.20;99.90;;;;;;4173082;28;20040;-68
2021/09/28 04:01:47;;;;;;;4.30;3.58;;;29.30;99.90;;;;;;4157817;28;20057;-69
2021/09/28 04:03:52;;;;;;;4.38;3.55;;;29.30;99.90;;;;;;4144517;28;20099;-69
2021/09/28 04:05:57;;;;;;;6.40;3.80;;;29.30;99.90;;;;;;4139772;28;20560;-70
2021/09/28 04:08:02;;;;;;;5.07;3.33;;;29.50;99.90;;;;;;4158117;28;20085;-69
2021/09/28 04:10:10;;;;;;;6.32;3.35;;;29.70;99.90;;;;;;4155320;28;20540;-69
2021/09/28 04:12:18;;;;;;;5.10;3.50;;;29.80;99.90;;;;;;4149090;28;20101;-70
2021/09/28 04:14:23;;;;;;;6.25;3.58;;;29.90;99.90;;;;;;4153115;28;21336;-69
2021/09/28 04:16:29;;;;;;;5.88;3.60;;;30.00;99.90;;;;;;4174880;28;20137;-69
2021/09/28 04:18:34;;;;;;;8.10;3.55;;;30.20;99.90;;;;;;4157981;28;20057;-69
2021/09/28 04:20:39;;;;;;;3.67;3.10;;;30.30;99.90;;;;;;4156265;28;20104;-70
2021/09/28 04:22:44;;;;;;;3.67;2.72;;;30.40;99.90;;;;;;4148622;28;20042;-70
2021/09/28 04:24:49;;;;;;;6.40;3.50;;;30.50;99.90;;;;;;4154964;28;20136;-71
2021/09/28 04:26:53;;;;;;;5.13;3.20;;;30.60;99.90;;;;;;4158722;28;20045;-69
2021/09/28 04:28:58;;;;;;;5.50;3.55;;;30.70;99.90;;;;;;4156594;28;20041;-69
2021/09/28 04:31:03;;;;;;;5.95;3.60;;;30.60;99.90;;;;;;4158894;28;20412;-69
2021/09/28 04:33:07;;;;;;;6.30;3.55;;;30.60;99.90;;;;;;4150448;28;20076;-69
2021/09/28 04:35:12;;;;;;;5.03;3.28;;;30.60;99.90;;;;;;4170448;28;20536;-69
2021/09/28 04:37:17;;;;;;;4.53;3.38;;;30.60;99.90;;;;;;4159323;28;20491;-71
2021/09/28 04:39:21;;;;;;;5.78;3.33;;;30.60;99.90;;;;;;4160090;28;20116;-69
2021/09/28 04:41:28;;;;;;;6.53;3.35;;;30.40;99.90;;;;;;4162168;28;20075;-70
2021/09/28 04:43:35;;;;;;;5.05;3.15;;;30.30;99.90;;;;;;4147278;28;20331;-69
2021/09/28 04:45:39;;;;;;;6.32;3.35;;;30.20;99.90;;;;;;4173040;28;20424;-69
2021/09/28 04:47:46;;;;;;;4.05;3.10;;;30.40;99.90;;;;;;4160579;28;20052;-69
2021/09/28 04:49:50;;;;;;;4.78;3.60;;;30.60;99.90;;;;;;4157248;28;20092;-68
2021/09/28 04:51:55;;;;;;;4.55;3.60;;;30.60;99.90;;;;;;4171845;28;20051;-68
2021/09/28 04:54:00;;;;;;;9.70;3.58;;;30.50;99.90;;;;;;4143051;28;20531;-68
2021/09/28 04:56:04;;;;;;;5.05;2.95;;;30.40;99.90;;;;;;4174574;28;20063;-70
2021/09/28 04:58:09;;;;;;;4.38;2.83;;;30.40;99.90;;;;;;4133918;28;20046;-70
2021/09/28 05:00:13;;;;;;;6.15;3.70;;;30.50;99.90;;;;;;4142705;28;20583;-69
2021/09/28 05:02:18;;;;;;;4.55;3.22;;;30.40;99.90;;;;;;4153584;28;20049;-69
2021/09/28 05:04:22;;;;;;;4.00;3.22;;;30.40;99.90;;;;;;4163921;28;20053;-69
2021/09/28 05:06:26;;;;;;;6.32;3.45;;;30.50;99.90;;;;;;4157970;28;20053;-69
2021/09/28 05:08:31;;;;;;;5.15;3.38;;;30.60;99.90;;;;;;4151762;28;20050;-69
2021/09/28 05:10:36;;;;;;;5.05;3.58;;;30.60;99.90;;;;;;4174542;28;20171;-69
2021/09/28 05:12:43;;;;;;;5.35;3.13;;;30.70;99.90;;;;;;4151928;28;20515;-69
2021/09/28 05:14:48;;;;;;;5.25;3.25;;;30.80;99.90;;;;;;4155509;28;20049;-70
2021/09/28 05:16:53;;;;;;;7.95;3.58;;;31.00;99.90;;;;;;4165988;28;20573;-69
2021/09/28 05:18:57;;;;;;;7.22;3.38;;;31.00;99.90;;;;;;4158867;28;20096;-69
2021/09/28 05:21:02;;;;;;;3.85;3.00;;;31.10;99.90;;;;;;4158466;28;20061;-70
2021/09/28 05:23:06;;;;;;;5.22;3.10;;;31.20;99.90;;;;;;4166620;28;20455;-69
2021/09/28 05:25:11;;;;;;;4.82;3.20;;;31.30;99.90;;;;;;4172214;28;20078;-69
2021/09/28 05:27:16;;;;;;;3.42;2.90;;;31.40;99.90;;;;;;4157481;28;20065;-70
2021/09/28 05:29:20;;;;;;;5.20;3.47;;;31.40;99.90;;;;;;4159760;28;20053;-69
2021/09/28 05:31:25;;;;;;;4.63;3.30;;;31.20;99.90;;;;;;4175050;28;20041;-69
2021/09/28 05:33:29;;;;;;;6.40;3.20;;;31.00;99.90;;;;;;4145813;28;20072;-68
2021/09/28 05:35:33;;;;;;;4.05;2.83;;;31.00;99.90;;;;;;4157614;28;20514;-68
2021/09/28 05:37:39;;;;;;;4.40;3.00;;;31.10;99.90;;;;;;4169643;28;20079;-69
2021/09/28 05:39:44;;;;;;;4.68;2.75;;;31.10;99.90;;;;;;4173501;28;20569;-69
2021/09/28 05:41:49;;;;;;;2.97;2.50;;;31.30;99.90;;;;;;4144390;28;20046;-70
2021/09/28 05:43:54;;;;;;;3.97;2.80;;;31.40;99.90;;;;;;4145156;28;20045;-69
2021/09/28 05:45:58;;;;;;;4.25;2.78;;;31.50;99.90;;;;;;4173840;28;20057;-69
2021/09/28 05:48:04;;;;;;;5.05;2.80;;;31.50;99.90;;;;;;4158324;28;20207;-69
2021/09/28 05:50:13;;;;;;;5.07;2.65;;;31.50;99.90;;;;;;4158010;28;20604;-71
2021/09/28 05:52:17;;;;;;;5.10;3.08;;;31.50;99.90;;;;;;4154317;28;20539;-70
2021/09/28 05:54:22;;;;;;;10.13;4.65;;;31.50;99.90;;;;;;4150411;28;20057;-70
2021/09/28 05:56:27;;;;;;;20.92;7.63;;;31.60;99.90;;;;;;4139512;28;20137;-70
2021/09/28 05:58:31;;;;;;;13.73;6.05;;;31.70;99.90;;;;;;4122106;28;20061;-69
2021/09/28 06:00:36;;;;;;;9.02;3.65;;;31.80;99.90;;;;;;4140848;28;20046;-71
2021/09/28 06:02:41;;;;;;;7.10;3.53;;;31.70;99.90;;;;;;4140006;28;20472;-70
2021/09/28 06:04:46;;;;;;;4.40;2.97;;;31.60;99.90;;;;;;4118962;28;20177;-70
2021/09/28 06:06:52;;;;;;;4.80;3.00;;;31.50;99.90;;;;;;4137660;28;20062;-70
2021/09/28 06:08:57;;;;;;;6.13;2.92;;;31.40;99.90;;;;;;4156339;28;20049;-69
2021/09/28 06:11:02;;;;;;;3.83;2.65;;;31.40;99.90;;;;;;4156702;28;20042;-70
2021/09/28 06:13:07;;;;;;;4.15;2.88;;;31.30;99.90;;;;;;4139520;28;20204;-68
2021/09/28 06:15:12;;;;;;;3.45;2.72;;;31.20;99.90;;;;;;4155978;28;20081;-69
2021/09/28 06:17:16;;;;;;;6.22;2.50;;;31.10;99.90;;;;;;4142519;28;20060;-70
2021/09/28 06:19:21;;;;;;;4.55;2.67;;;31.10;99.90;;;;;;4151504;28;20045;-70
2021/09/28 06:21:27;;;;;;;4.90;2.80;;;31.20;99.90;;;;;;4130148;28;20092;-72
2021/09/28 06:23:31;;;;;;;3.08;2.67;;;31.20;99.90;;;;;;4130350;28;20041;-70
2021/09/28 06:25:35;;;;;;;4.55;2.25;;;31.40;99.90;;;;;;4142663;28;20071;-70
2021/09/28 06:27:40;;;;;;;3.35;3.00;;;31.50;99.90;;;;;;4158081;28;20045;-69
2021/09/28 06:29:46;;;;;;;3.47;2.83;;;31.60;99.90;;;;;;4159554;28;20045;-69
2021/09/28 06:31:51;;;;;;;9.10;2.78;;;31.70;99.90;;;;;;4150600;28;20509;-69
2021/09/28 06:33:56;;;;;;;7.72;2.90;;;31.60;99.90;;;;;;4147411;28;20049;-68
2021/09/28 06:36:00;;;;;;;3.20;2.63;;;31.50;99.90;;;;;;4175725;28;20144;-69
2021/09/28 06:38:06;;;;;;;4.15;2.70;;;31.50;99.90;;;;;;4159610;28;20083;-70
2021/09/28 06:40:12;;;;;;;6.35;2.85;;;31.50;99.90;;;;;;4142324;28;20394;-70
2021/09/28 06:42:22;;;;;;;3.08;2.28;;;31.50;99.90;;;;;;4150008;28;20038;-71
2021/09/28 06:44:28;;;;;;;4.70;2.83;;;31.50;99.90;;;;;;4151346;28;20539;-70
2021/09/28 06:46:33;;;;;;;5.18;2.58;;;31.60;99.90;;;;;;4159094;28;20611;-70
2021/09/28 06:48:38;;;;;;;3.45;2.45;;;31.70;99.90;;;;;;4159975;28;20103;-71
2021/09/28 06:50:43;;;;;;;3.95;2.40;;;31.80;99.90;;;;;;4151844;28;20144;-71
2021/09/28 06:52:48;;;;;;;6.40;2.97;;;31.90;99.90;;;;;;4147065;28;20069;-71
2021/09/28 06:54:52;;;;;;;6.50;3.28;;;32.00;99.90;;;;;;4151954;28;20105;-70
2021/09/28 06:56:57;;;;;;;5.85;3.00;;;32.00;99.90;;;;;;4154520;28;20506;-70
2021/09/28 06:59:07;;;;;;;6.03;3.10;;;32.00;99.90;;;;;;4173483;28;20048;-70
2021/09/28 07:01:12;;;;;;;3.83;3.15;;;32.00;99.90;;;;;;4158583;28;20053;-71
2021/09/28 07:03:17;;;;;;;4.03;2.92;;;31.90;99.90;;;;;;4147359;28;20041;-71
2021/09/28 07:05:23;;;;;;;3.50;2.67;;;31.80;99.90;;;;;;4161281;28;20493;-71
2021/09/28 07:07:28;;;;;;;4.60;2.60;;;31.70;99.90;;;;;;4149732;28;20057;-70
2021/09/28 07:09:34;;;;;;;4.65;3.20;;;31.70;99.90;;;;;;4164509;28;20061;-70
2021/09/28 07:11:38;;;;;;;4.70;3.03;;;31.60;99.90;;;;;;4156586;28;20561;-70
2021/09/28 07:13:43;;;;;;;4.60;2.85;;;31.60;99.90;;;;;;4144211;28;20144;-70
2021/09/28 07:15:47;;;;;;;4.03;2.70;;;31.60;99.90;;;;;;4157832;28;20128;-69
2021/09/28 07:17:53;;;;;;;5.10;2.67;;;31.60;99.90;;;;;;4159968;28;20408;-70
2021/09/28 07:19:58;;;;;;;4.88;2.58;;;31.60;99.90;;;;;;4154484;28;20124;-70
2021/09/28 07:22:03;;;;;;;4.30;2.60;;;31.60;99.90;;;;;;4155433;28;20049;-71
2021/09/28 07:24:10;;;;;;;3.17;2.58;;;31.60;99.90;;;;;;4153523;28;20052;-71
2021/09/28 07:26:15;;;;;;;3.78;3.00;;;31.80;99.90;;;;;;4157389;28;20463;-70
2021/09/28 07:28:20;;;;;;;2.60;2.35;;;31.90;99.90;;;;;;4159692;28;20058;-70
2021/09/28 07:30:30;;;;;;;6.38;2.80;;;32.10;99.90;;;;;;4135121;28;20056;-71
2021/09/28 07:32:35;;;;;;;3.90;2.50;;;32.10;99.90;;;;;;4145662;28;20084;-69
2021/09/28 07:34:40;;;;;;;3.35;2.33;;;32.20;99.90;;;;;;4170749;28;20087;-70
2021/09/28 07:36:45;;;;;;;3.67;2.67;;;32.30;99.90;;;;;;4155255;28;20076;-71
2021/09/28 07:38:49;;;;;;;5.53;2.80;;;32.30;99.90;;;;;;4140878;28;20528;-69
2021/09/28 07:40:54;;;;;;;3.38;2.53;;;32.20;99.90;;;;;;4157204;28;20065;-70
2021/09/28 07:42:59;;;;;;;3.78;2.35;;;32.10;99.90;;;;;;4136788;28;20057;-69
2021/09/28 07:45:04;;;;;;;3.58;2.72;;;32.10;99.90;;;;;;4148277;28;20049;-73
2021/09/28 07:47:09;;;;;;;8.23;3.10;;;32.00;99.90;;;;;;4172630;28;20612;-70
2021/09/28 07:49:15;;;;;;;3.20;2.35;;;32.00;99.90;;;;;;4152203;28;20077;-72
2021/09/28 07:51:19;;;;;;;3.67;2.70;;;31.90;99.90;;;;;;4151850;28;20531;-71
2021/09/28 07:53:24;;;;;;;3.33;2.70;;;31.90;99.90;;;;;;4139488;28;20077;-70
2021/09/28 07:55:29;;;;;;;3.90;2.70;;;31.80;99.90;;;;;;4153783;28;20046;-71
2021/09/28 07:57:33;;;;;;;4.05;2.50;;;31.70;99.90;;;;;;4150284;28;20085;-69
2021/09/28 07:59:38;;;;;;;2.55;2.15;;;31.60;99.90;;;;;;4171148;28;20619;-69
2021/09/28 08:01:43;;;;;;;5.28;2.97;;;31.70;99.90;;;;;;4157421;28;20068;-71
2021/09/28 08:03:48;;;;;;;5.80;3.00;;;31.60;99.90;;;;;;4142560;28;20053;-71
2021/09/28 08:05:53;;;;;;;4.90;2.80;;;31.80;99.90;;;;;;4139946;28;20260;-70
2021/09/28 08:07:57;;;;;;;5.22;2.83;;;31.90;99.90;;;;;;4152518;28;20057;-70
2021/09/28 08:10:02;;;;;;;3.75;2.83;;;32.00;99.90;;;;;;4172830;28;20053;-70
2021/09/28 08:12:08;;;;;;;2.97;2.50;;;32.10;99.90;;;;;;4152548;28;20046;-71
2021/09/28 08:14:13;;;;;;;4.75;3.05;;;32.20;99.90;;;;;;4146461;28;20052;-71
2021/09/28 08:16:17;;;;;;;7.57;3.20;;;32.30;99.90;;;;;;4170642;28;20053;-71
2021/09/28 08:18:22;;;;;;;8.73;3.78;;;32.30;99.90;;;;;;4154473;28;20120;-70
2021/09/28 08:20:28;;;;;;;7.53;3.78;;;32.20;99.90;;;;;;4141519;28;20176;-72
2021/09/28 08:22:33;;;;;;;7.45;3.67;;;32.20;99.90;;;;;;4146943;28;20163;-70
2021/09/28 08:24:42;;;;;;;4.82;3.30;;;32.30;99.90;;;;;;4139578;28;20050;-72
2021/09/28 08:29:10;;;;;;;4.65;2.67;;;32.40;99.60;;;;;;4138662;28;20633;-70
2021/09/28 08:31:16;;;;;;;8.50;2.93;;;32.20;99.30;;;;;;4153950;28;20084;-70
2021/09/28 08:33:20;;;;;;;5.93;3.15;;;32.20;99.70;;;;;;4131987;28;20281;-69
2021/09/28 08:35:26;;;;;;;6.13;2.72;;;32.30;99.30;;;;;;4138224;28;20104;-70
2021/09/28 08:37:30;;;;;;;5.15;2.80;;;32.30;99.10;;;;;;4156648;28;20601;-71
2021/09/28 08:39:34;;;;;;;6.68;3.03;;;32.30;99.70;;;;;;4116153;28;20449;-70
2021/09/28 08:41:39;;;;;;;6.30;3.00;;;32.40;99.20;;;;;;4137030;28;20047;-71
2021/09/28 08:43:44;;;;;;;6.80;3.30;;;32.40;99.50;;;;;;4131161;28;20042;-71
2021/09/28 08:45:49;;;;;;;9.77;3.70;;;32.00;99.90;;;;;;4153778;28;20112;-71
2021/09/28 08:47:53;;;;;;;5.70;3.00;;;31.90;99.90;;;;;;4133011;28;20150;-71
2021/09/28 08:49:58;;;;;;;7.20;3.25;;;31.90;99.90;;;;;;4139763;28;20041;-73
2021/09/28 08:52:04;;;;;;;6.50;3.70;;;32.00;99.90;;;;;;4135607;28;20943;-71
2021/09/28 08:54:08;;;;;;;6.70;3.17;;;32.00;99.90;;;;;;4118820;28;20524;-71
2021/09/28 08:56:14;;;;;;;9.32;3.45;;;31.90;99.90;;;;;;4132997;28;20085;-71
2021/09/28 08:58:23;;;;;;;5.93;3.35;;;31.90;99.90;;;;;;4140315;28;20045;-71
2021/09/28 09:00:27;;;;;;;6.38;3.17;;;31.90;99.90;;;;;;4140653;28;20050;-72
2021/09/28 09:02:44;;;;;;;4.00;2.78;;;31.90;99.90;;;;;;4149494;28;20061;-71
2021/09/28 09:05:02;;;;;;;5.93;2.83;;;31.80;99.90;;;;;;4152626;28;20045;-70
2021/09/28 09:07:26;;;;;;;4.72;2.70;;;31.70;99.90;;;;;;4155961;28;20353;-70
2021/09/28 09:09:30;;;;;;;4.18;2.65;;;31.40;99.90;;;;;;4157037;28;20037;-70
2021/09/28 09:11:38;;;;;;;4.60;2.67;;;31.40;99.90;;;;;;4111602;28;20082;-71
2021/09/28 09:13:47;;;;;;;2.78;2.50;;;31.50;99.90;;;;;;4099109;28;20137;-70
2021/09/28 09:15:52;;;;;;;5.18;2.90;;;31.50;99.90;;;;;;4095476;28;20577;-71
2021/09/28 09:17:59;;;;;;;4.50;2.78;;;31.50;99.90;;;;;;4067401;29;20542;-71
2021/09/28 09:20:25;;;;;;;4.60;3.13;;;31.40;99.90;;;;;;4082130;29;20092;-71
2021/09/28 09:22:32;;;;;;;4.78;3.40;;;31.40;99.90;;;;;;4097549;28;20043;-71
2021/09/28 09:24:45;;;;;;;4.47;3.33;;;31.30;99.90;;;;;;4095509;28;20043;-71
2021/09/28 09:26:50;;;;;;;4.32;3.17;;;31.30;99.90;;;;;;4096717;28;20057;-71
2021/09/28 09:29:14;;;;;;;4.60;3.20;;;31.30;99.90;;;;;;4103450;28;20055;-71
2021/09/28 09:31:31;;;;;;;7.93;3.97;;;31.30;99.90;;;;;;4103398;28;20469;-71
2021/09/28 09:33:37;;;;;;;5.47;4.55;;;31.20;99.90;;;;;;4074135;29;20058;-69
2021/09/28 09:35:41;;;;;;;8.57;4.63;;;31.20;99.90;;;;;;4063780;29;20100;-71
2021/09/28 09:37:46;;;;;;;6.60;4.50;;;31.10;99.90;;;;;;4098029;28;20622;-71
2021/09/28 09:39:54;;;;;;;6.07;4.13;;;31.10;99.90;;;;;;4095091;28;20051;-70
2021/09/28 09:42:06;;;;;;;5.57;4.13;;;31.20;99.90;;;;;;4100121;28;20045;-70
2021/09/28 09:44:13;;;;;;;6.03;4.10;;;31.20;99.90;;;;;;4121192;28;20058;-71
2021/09/28 09:46:19;;;;;;;7.55;3.45;;;31.20;99.90;;;;;;4142599;28;20042;-71
2021/09/28 09:48:25;;;;;;;9.80;3.90;;;31.10;99.90;;;;;;4160250;28;20045;-69
2021/09/28 09:50:32;;;;;;;6.35;3.28;;;31.10;99.90;;;;;;4149666;28;20492;-71
2021/09/28 09:52:36;;;;;;;7.35;3.20;;;31.10;99.90;;;;;;4153514;28;20045;-71
2021/09/28 09:54:43;;;;;;;5.55;3.15;;;31.00;99.90;;;;;;4168361;28;20076;-72
2021/09/28 09:56:51;;;;;;;3.35;2.83;;;30.90;99.90;;;;;;4142603;28;20041;-71
2021/09/28 09:58:56;;;;;;;5.47;3.45;;;30.90;99.90;;;;;;4159048;28;20049;-71
2021/09/28 10:01:01;;;;;;;4.38;3.10;;;30.80;99.90;;;;;;4157096;28;20054;-71
2021/09/28 10:03:06;;;;;;;9.07;5.80;;;30.80;99.90;;;;;;4168098;28;20201;-71
2021/09/28 10:05:12;;;;;;;9.00;5.47;;;30.80;99.90;;;;;;4139861;28;20058;-70
2021/09/28 10:07:16;;;;;;;10.20;5.32;;;30.80;99.90;;;;;;4142936;28;20333;-71
2021/09/28 10:09:42;;;;;;;6.07;4.00;;;30.80;99.90;;;;;;4158774;28;20132;-74
2021/09/28 10:11:50;;;;;;;6.90;3.97;;;30.90;99.90;;;;;;4156752;28;20179;-69
2021/09/28 10:13:57;;;;;;;5.47;3.70;;;30.90;99.90;;;;;;4114294;28;20562;-69
2021/09/28 10:16:25;;;;;;;9.82;5.10;;;30.90;99.90;;;;;;4131812;28;20092;-68
2021/09/28 10:18:41;;;;;;;10.60;5.93;;;30.70;99.90;;;;;;4125290;28;20074;-70
2021/09/28 10:20:46;;;;;;;7.80;5.47;;;30.70;99.90;;;;;;4124472;28;20078;-71
2021/09/28 10:22:55;;;;;;;8.93;6.00;;;30.60;99.90;;;;;;4115022;28;20129;-70
2021/09/28 10:25:21;;;;;;;9.38;5.78;;;30.50;99.90;;;;;;4127423;28;20061;-71
2021/09/28 10:27:27;;;;;;;6.50;4.18;;;30.50;99.90;;;;;;4139973;28;20540;-71
2021/09/28 10:29:47;;;;;;;7.88;4.25;;;30.20;99.90;;;;;;4107889;28;20106;-70
2021/09/28 10:31:52;;;;;;;9.60;4.20;;;30.10;99.90;;;;;;4117562;28;20054;-70
2021/09/28 10:33:56;;;;;;;7.00;4.60;;;30.20;99.90;;;;;;4123836;28;20312;-71
2021/09/28 10:36:10;;;;;;;7.10;4.68;;;30.20;99.90;;;;;;4138463;28;20074;-71
2021/09/28 10:38:15;;;;;;;8.20;4.50;;;30.30;99.90;;;;;;4116046;28;20055;-71
2021/09/28 10:40:22;;;;;;;8.70;5.47;;;30.20;99.90;;;;;;4119036;28;20148;-70
2021/09/28 10:42:51;;;;;;;9.45;5.32;;;30.10;99.90;;;;;;4131693;28;20054;-72
2021/09/28 10:44:56;;;;;;;10.35;6.80;;;30.10;99.90;;;;;;4142888;28;20065;-71
2021/09/28 10:47:00;;;;;;;17.85;11.55;;;30.10;99.90;;;;;;4156460;28;20124;-72
2021/09/28 10:49:33;;;;;;;16.08;9.77;;;30.20;99.90;;;;;;4154901;28;20733;-71
2021/09/28 10:51:38;;;;;;;14.27;8.43;;;30.20;99.90;;;;;;4174693;28;20037;-70
2021/09/28 10:53:46;;;;;;;12.75;7.68;;;30.30;99.90;;;;;;4125301;28;20274;-71
2021/09/28 10:56:06;;;;;;;11.68;8.10;;;30.30;99.90;;;;;;4140276;28;20096;-70
2021/09/28 10:58:20;;;;;;;10.75;7.85;;;30.30;99.90;;;;;;4155781;28;20049;-72